Time;durP1;ratioP1;P1;durP2;ratioP2;P2;SDS_P1;SDS_P2;PMS_P1;PMS_P2;Temp;Humidity;BMP_temperature;BMP_pressure;BME280_temperature;BME280_humidity;BME280_pressure;Samples;Min_cycle;Max_cycle;Signal;HPM_P1;HPM_P2
2022/06/18 00:00:27;;;;;;;;;;;31.60;26.20;;;;;;21264805;27;19924;-71
2022/06/18 00:13:39;;;;;;;;;;;31.40;26.30;;;;;;21251007;27;19930;-70
2022/06/18 00:21:37;;;;;;;;;;;31.20;26.50;;;;;;21249343;27;20021;-69
2022/06/18 00:31:51;;;;;;;;;;;31.00;25.80;;;;;;21250573;28;20295;-69
2022/06/18 00:42:18;;;;;;;;;;;31.00;25.40;;;;;;21247383;28;19934;-69
2022/06/18 00:52:51;;;;;;;;;;;30.90;24.90;;;;;;21248797;28;19927;-72
2022/06/18 01:03:21;;;;;;;;;;;30.70;24.70;;;;;;21258908;27;19923;-71
2022/06/18 01:13:42;;;;;;;;;;;30.60;24.70;;;;;;21264351;27;20370;-71
2022/06/18 01:24:10;;;;;;;;;;;30.50;24.40;;;;;;21262384;27;20255;-70
2022/06/18 01:34:31;;;;;;;;;;;30.30;24.50;;;;;;21263356;27;19927;-71
2022/06/18 01:45:18;;;;;;;;;;;30.20;24.60;;;;;;21271268;27;19927;-67
2022/06/18 01:55:45;;;;;;;;;;;30.00;25.00;;;;;;21274488;27;20348;-72
2022/06/18 02:06:07;;;;;;;;;;;29.80;25.30;;;;;;21286805;27;19927;-70
2022/06/18 02:16:30;;;;;;;;;;;29.70;25.40;;;;;;21288279;27;19935;-67
2022/06/18 02:26:51;;;;;;;;;;;29.50;25.40;;;;;;21257168;27;20252;-66
2022/06/18 02:37:16;;;;;;;;;;;29.40;25.40;;;;;;21256424;27;19923;-67
2022/06/18 02:47:37;;;;;;;;;;;29.30;25.40;;;;;;21257268;27;19924;-67
2022/06/18 02:58:02;;;;;;;;;;;29.20;25.70;;;;;;21257537;27;19927;-67
2022/06/18 03:08:24;;;;;;;;;;;29.10;25.80;;;;;;21254263;27;19956;-65
2022/06/18 03:18:45;;;;;;;;;;;29.10;26.00;;;;;;21268924;27;19935;-68
2022/06/18 03:29:07;;;;;;;;;;;28.90;26.30;;;;;;21254559;27;19923;-70
2022/06/18 03:39:28;;;;;;;;;;;28.80;26.50;;;;;;21252154;27;19923;-71
2022/06/18 03:49:49;;;;;;;;;;;28.70;26.50;;;;;;21250515;27;19923;-71
2022/06/18 04:00:14;;;;;;;;;;;28.60;26.60;;;;;;21251000;27;19924;-70
2022/06/18 04:10:35;;;;;;;;;;;28.50;26.80;;;;;;21249308;27;19943;-70
2022/06/18 04:20:56;;;;;;;;;;;28.40;27.10;;;;;;21249392;27;19927;-70
2022/06/18 04:31:17;;;;;;;;;;;28.20;28.50;;;;;;21249546;27;19927;-71
2022/06/18 04:41:38;;;;;;;;;;;28.10;28.70;;;;;;21266550;27;20354;-70
2022/06/18 04:51:59;;;;;;;;;;;28.00;28.40;;;;;;21265303;27;20335;-73
2022/06/18 05:02:25;;;;;;;;;;;27.90;28.70;;;;;;21263295;27;19974;-68
2022/06/18 05:12:40;;;;;;;;;;;27.80;28.90;;;;;;21263249;27;19927;-68
2022/06/18 05:23:01;;;;;;;;;;;27.80;29.50;;;;;;21262951;27;19931;-73
2022/06/18 05:33:22;;;;;;;;;;;27.80;29.90;;;;;;21262560;27;20252;-70
2022/06/18 05:43:43;;;;;;;;;;;27.80;29.60;;;;;;21259109;27;19923;-70
2022/06/18 05:54:05;;;;;;;;;;;27.90;29.50;;;;;;21259061;27;19930;-72
2022/06/18 06:04:26;;;;;;;;;;;27.90;29.60;;;;;;21258094;27;19975;-72
2022/06/18 06:14:47;;;;;;;;;;;28.00;29.40;;;;;;21241987;27;19930;-71
2022/06/18 06:25:08;;;;;;;;;;;28.20;29.20;;;;;;21255915;27;20367;-72
2022/06/18 06:35:30;;;;;;;;;;;28.20;30.90;;;;;;21256792;27;19930;-72
2022/06/18 06:45:51;;;;;;;;;;;28.30;30.30;;;;;;21254837;27;20298;-71
2022/06/18 07:06:56;;;;;;;;;;;29.50;29.30;;;;;;21254003;27;19976;-69
2022/06/18 07:17:18;;;;;;;;;;;30.20;28.10;;;;;;21239131;27;20355;-67
2022/06/18 07:27:39;;;;;;;;;;;30.60;27.50;;;;;;21253933;27;19927;-72
2022/06/18 07:38:00;;;;;;;;;;;31.00;27.30;;;;;;21253313;27;19924;-71
2022/06/18 07:48:22;;;;;;;;;;;31.50;26.40;;;;;;21252670;27;19935;-70
2022/06/18 07:58:43;;;;;;;;;;;32.10;25.60;;;;;;21250721;27;19923;-68
2022/06/18 08:09:05;;;;;;;;;;;32.50;24.60;;;;;;21273425;27;19924;-68
2022/06/18 08:19:26;;;;;;;;;;;32.80;24.20;;;;;;21274747;27;19945;-71
2022/06/18 08:29:48;;;;;;;;;;;;;;;;;;21251614;27;19924;-69
2022/06/18 08:40:34;;;;;;;;;;;33.30;23.90;;;;;;21249268;28;20295;-68
2022/06/18 08:50:54;;;;;;;;;;;33.50;23.90;;;;;;21247685;28;20019;-66
2022/06/18 09:01:27;;;;;;;;;;;34.00;23.30;;;;;;21248139;28;20021;-67
2022/06/18 09:11:54;;;;;;;;;;;34.20;23.00;;;;;;21246788;28;19930;-65
2022/06/18 09:22:17;;;;;;;;;;;34.20;23.10;;;;;;21254350;27;19963;-64
2022/06/18 09:32:39;;;;;;;;;;;;;;;;;;21263522;27;19981;-67
2022/06/18 09:43:00;;;;;;;;;;;;;;;;;;21261816;27;20268;-69
2022/06/18 09:53:22;;;;;;;;;;;;;;;;;;21259415;27;20295;-64
2022/06/18 10:14:23;;;;;;;;;;;36.20;21.50;;;;;;21259140;27;19930;-65
2022/06/18 10:25:03;;;;;;;;;;;35.30;22.30;;;;;;21257755;27;20286;-65
2022/06/18 10:35:30;;;;;;;;;;;35.90;21.30;;;;;;21257676;27;20252;-65
2022/06/18 10:46:01;;;;;;;;;;;36.10;21.10;;;;;;21269404;27;19927;-65
2022/06/18 10:56:27;;;;;;;;;;;36.20;21.10;;;;;;21258971;27;19924;-65
2022/06/18 11:06:49;;;;;;;;;;;36.50;20.70;;;;;;21253853;27;19927;-65
2022/06/18 11:17:20;;;;;;;;;;;36.90;19.50;;;;;;21254352;27;19931;-67
2022/06/18 11:27:41;;;;;;;;;;;37.10;19.80;;;;;;21265884;27;20374;-67
2022/06/18 11:37:58;;;;;;;;;;;37.30;19.20;;;;;;21249309;27;19927;-62
2022/06/18 11:48:23;;;;;;;;;;;37.30;19.10;;;;;;21249021;27;19924;-67
2022/06/18 11:58:47;;;;;;;;;;;37.50;19.10;;;;;;21249981;27;19968;-69
2022/06/18 12:09:10;;;;;;;;;;;37.70;18.50;;;;;;21250039;27;19992;-67
2022/06/18 12:19:41;;;;;;;;;;;38.10;18.20;;;;;;21249506;27;20283;-67
2022/06/18 12:30:05;;;;;;;;;;;38.00;18.20;;;;;;21251649;27;20577;-68
2022/06/18 12:40:29;;;;;;;;;;;38.10;18.30;;;;;;21249537;28;19962;-67
2022/06/18 12:50:50;;;;;;;;;;;38.30;17.70;;;;;;21248627;28;20329;-69
2022/06/18 13:01:28;;;;;;;;;;;38.50;17.60;;;;;;21261882;27;19968;-67
2022/06/18 13:11:58;;;;;;;;;;;38.30;17.30;;;;;;21264580;27;19969;-68
2022/06/18 13:22:19;;;;;;;;;;;38.50;17.00;;;;;;21263600;27;19930;-68
2022/06/18 13:32:43;;;;;;;;;;;38.70;16.60;;;;;;21262645;27;19930;-69
2022/06/18 13:43:04;;;;;;;;;;;38.80;16.70;;;;;;21268660;27;19923;-66
2022/06/18 13:53:31;;;;;;;;;;;39.00;16.50;;;;;;21250163;27;19928;-69
2022/06/18 14:04:01;;;;;;;;;;;39.00;16.60;;;;;;21261190;27;19927;-69
2022/06/18 14:14:41;;;;;;;;;;;39.30;16.20;;;;;;21258751;27;19927;-69
2022/06/18 14:25:03;;;;;;;;;;;39.30;15.70;;;;;;21257227;27;19927;-68
2022/06/18 14:35:43;;;;;;;;;;;38.80;16.10;;;;;;21257178;27;19942;-70
2022/06/18 14:46:23;;;;;;;;;;;38.60;16.00;;;;;;21255731;27;19923;-67
2022/06/18 14:57:01;;;;;;;;;;;38.30;16.40;;;;;;21254856;27;19923;-68
2022/06/18 15:07:43;;;;;;;;;;;38.70;16.50;;;;;;21253413;27;19927;-70
2022/06/18 15:18:24;;;;;;;;;;;38.80;17.40;;;;;;21252608;27;19953;-69
2022/06/18 15:28:46;;;;;;;;;;;38.90;17.10;;;;;;21253312;27;19923;-69
2022/06/18 15:39:15;;;;;;;;;;;39.10;17.30;;;;;;21252962;27;19935;-70
2022/06/18 15:49:41;;;;;;;;;;;39.10;17.10;;;;;;21251894;27;19923;-69
2022/06/18 16:00:12;;;;;;;;;;;39.00;17.30;;;;;;21250586;27;19927;-71
2022/06/18 16:10:39;;;;;;;;;;;38.80;17.60;;;;;;21250976;27;19923;-69
2022/06/18 16:21:02;;;;;;;;;;;38.50;16.00;;;;;;21249853;27;19923;-69
2022/06/18 16:31:36;;;;;;;;;;;38.70;16.40;;;;;;21251817;27;19946;-69
2022/06/18 16:41:57;;;;;;;;;;;38.40;16.60;;;;;;21248135;28;19924;-68
2022/06/18 16:52:19;;;;;;;;;;;38.50;16.30;;;;;;21248258;28;20283;-69
2022/06/18 17:02:40;;;;;;;;;;;38.30;16.90;;;;;;21246931;28;19923;-69
2022/06/18 17:12:52;;;;;;;;;;;37.90;20.70;;;;;;21249462;28;20298;-68
2022/06/18 17:23:15;;;;;;;;;;;37.50;21.40;;;;;;21245916;28;19931;-68
2022/06/18 17:33:38;;;;;;;;;;;37.40;21.50;;;;;;21246751;28;19923;-68
2022/06/18 17:43:59;;;;;;;;;;;37.50;21.90;;;;;;21252498;27;19924;-70
2022/06/18 17:54:20;;;;;;;;;;;37.10;22.50;;;;;;21261621;27;20278;-68
2022/06/18 18:04:43;;;;;;;;;;;36.80;23.00;;;;;;21259376;27;19949;-69
2022/06/18 18:15:07;;;;;;;;;;;36.50;23.60;;;;;;21261671;27;19923;-67
2022/06/18 18:25:29;;;;;;;;;;;36.30;23.80;;;;;;21259869;27;19923;-68
2022/06/18 18:35:50;;;;;;;;;;;36.30;24.20;;;;;;21264027;27;19923;-66
2022/06/18 18:46:10;;;;;;;;;;;35.90;24.90;;;;;;21243341;27;19924;-70
2022/06/18 18:56:32;;;;;;;;;;;35.50;25.10;;;;;;21259375;27;19923;-69
2022/06/18 19:06:43;;;;;;;;;;;35.00;25.60;;;;;;21254722;27;20014;-68
2022/06/18 19:16:44;;;;;;;;;;;34.70;25.80;;;;;;21255032;27;20294;-66
2022/06/18 19:26:47;;;;;;;;;;;34.60;25.90;;;;;;21252795;27;20017;-69
2022/06/18 19:36:49;;;;;;;;;;;34.40;26.00;;;;;;21253001;27;19923;-66
2022/06/18 19:46:50;;;;;;;;;;;34.20;26.10;;;;;;21253016;27;19931;-67
2022/06/18 19:56:51;;;;;;;;;;;33.90;26.40;;;;;;21251253;27;19923;-69
2022/06/18 20:06:51;;;;;;;;;;;33.70;26.60;;;;;;21248680;27;19930;-70
2022/06/18 20:17:12;;;;;;;;;;;33.50;26.70;;;;;;21250968;27;19928;-64
2022/06/18 20:27:35;;;;;;;;;;;33.30;26.90;;;;;;21248853;27;20359;-60
2022/06/18 20:37:53;;;;;;;;;;;33.10;27.10;;;;;;21248900;27;19927;-63
2022/06/18 20:48:13;;;;;;;;;;;33.10;26.70;;;;;;21248892;28;19924;-64
2022/06/18 20:58:35;;;;;;;;;;;33.10;26.30;;;;;;21252042;28;19924;-67
2022/06/18 21:08:56;;;;;;;;;;;33.10;26.00;;;;;;21248660;28;19930;-64
2022/06/18 21:19:17;;;;;;;;;;;32.90;26.10;;;;;;21242086;27;19931;-61
2022/06/18 21:29:38;;;;;;;;;;;32.60;26.40;;;;;;21263818;27;19923;-62
2022/06/18 21:39:59;;;;;;;;;;;32.40;27.20;;;;;;21247879;27;20294;-62
2022/06/18 21:50:24;;;;;;;;;;;32.10;27.80;;;;;;21263305;27;19924;-62
2022/06/18 22:00:45;;;;;;;;;;;31.90;28.30;;;;;;21262313;27;20362;-64
2022/06/18 22:11:08;;;;;;;;;;;31.70;28.80;;;;;;21259676;27;19924;-61
2022/06/18 22:21:29;;;;;;;;;;;31.30;30.00;;;;;;21258505;27;20283;-63
2022/06/18 22:31:50;;;;;;;;;;;30.80;30.70;;;;;;21256754;27;19924;-61
2022/06/18 22:42:12;;;;;;;;;;;30.40;30.50;;;;;;21256900;27;19923;-65
2022/06/18 22:52:35;;;;;;;;;;;30.10;30.60;;;;;;21256686;27;19938;-62
2022/06/18 23:02:56;;;;;;;;;;;29.90;30.00;;;;;;21255420;27;19923;-61
2022/06/18 23:13:16;;;;;;;9.77;2.25;;;29.60;28.70;;;;;;21257445;27;20729;-61
2022/06/18 23:23:30;;;;;;;7.70;1.73;;;29.30;28.70;;;;;;21253371;27;20075;-66
2022/06/18 23:33:51;;;;;;;4.30;1.27;;;29.10;28.40;;;;;;21253388;27;20043;-65
2022/06/18 23:44:10;;;;;;;4.32;1.27;;;28.70;28.60;;;;;;21068816;27;20386;-65
2022/06/18 23:54:32;;;;;;;4.85;0.88;;;28.30;28.90;;;;;;21069905;28;20063;-65
